Time;durP1;ratioP1;P1;durP2;ratioP2;P2;SDS_P1;SDS_P2;PMS_P1;PMS_P2;Temp;Humidity;BMP_temperature;BMP_pressure;BME280_temperature;BME280_humidity;BME280_pressure;Samples;Min_cycle;Max_cycle;Signal;HPM_P1;HPM_P2
2022/12/24 00:01:39;;;;;;;27.77;17.02;;;;;;;4.34;58.20;93692.19;4993519;28;20050;-72
2022/12/24 00:04:05;;;;;;;25.02;16.00;;;;;;;4.33;58.11;93698.50;4994898;28;20045;-72
2022/12/24 00:06:31;;;;;;;26.77;16.17;;;;;;;4.39;58.74;93706.09;4993423;28;20026;-72
2022/12/24 00:08:56;;;;;;;24.70;16.23;;;;;;;4.39;59.04;93703.47;4990484;28;20053;-73
2022/12/24 00:11:21;;;;;;;24.65;16.60;;;;;;;4.51;58.82;93705.72;4991394;28;20030;-72
2022/12/24 00:13:47;;;;;;;29.38;18.13;;;;;;;4.56;58.17;93680.13;4992626;28;20627;-73
2022/12/24 00:16:13;;;;;;;22.27;16.13;;;;;;;4.52;58.45;93713.34;4992654;28;20046;-71
2022/12/24 00:18:38;;;;;;;27.02;16.38;;;;;;;4.42;58.67;93704.75;4986983;28;20021;-72
2022/12/24 00:21:05;;;;;;;24.20;16.30;;;;;;;4.47;58.22;93705.47;4993413;28;20026;-72
2022/12/24 00:23:31;;;;;;;24.02;15.70;;;;;;;4.44;58.03;93716.59;4991691;28;20041;-73
2022/12/24 00:25:56;;;;;;;25.05;16.75;;;;;;;4.36;58.94;93713.75;4992508;28;20034;-73
2022/12/24 00:28:22;;;;;;;23.90;15.55;;;;;;;4.36;58.53;93714.53;4992125;28;20045;-73
2022/12/24 00:30:47;;;;;;;20.90;15.30;;;;;;;4.22;58.95;93687.25;4993432;28;20107;-73
2022/12/24 00:33:12;;;;;;;20.17;14.73;;;;;;;4.37;59.27;93704.78;4994731;28;20895;-74
2022/12/24 00:35:39;;;;;;;24.50;15.60;;;;;;;4.37;59.28;93710.03;4991469;28;20041;-72
2022/12/24 00:38:05;;;;;;;24.27;14.00;;;;;;;4.41;58.95;93705.78;4992381;28;20348;-73
2022/12/24 00:40:32;;;;;;;19.70;14.27;;;;;;;4.28;58.98;93689.56;4991445;28;20440;-74
2022/12/24 00:42:58;;;;;;;21.50;13.57;;;;;;;4.46;58.49;93708.38;4991498;28;20057;-73
2022/12/24 00:45:23;;;;;;;20.55;13.68;;;;;;;4.43;58.47;93704.47;4987959;28;20025;-72
2022/12/24 00:47:48;;;;;;;23.48;13.90;;;;;;;4.38;58.51;93703.72;4992531;28;20590;-74
2022/12/24 00:50:14;;;;;;;24.38;15.40;;;;;;;4.31;58.63;93701.41;4991715;28;20053;-72
2022/12/24 00:52:40;;;;;;;18.17;13.82;;;;;;;4.31;58.67;93701.41;4993143;28;20038;-72
2022/12/24 00:55:05;;;;;;;23.77;14.55;;;;;;;4.34;58.55;93710.63;4994070;28;20500;-72
2022/12/24 00:57:31;;;;;;;16.73;12.18;;;;;;;4.36;58.63;93713.75;4986489;28;20049;-73
2022/12/24 00:59:56;;;;;;;18.65;12.82;;;;;;;4.39;58.44;93710.56;4991844;28;20034;-73
2022/12/24 01:02:22;;;;;;;16.65;11.30;;;;;;;4.45;58.52;93718.16;4993285;28;20779;-72
2022/12/24 01:07:32;;;;;;;17.55;11.57;;;;;;;4.27;58.19;93698.50;4991703;28;20064;-73
2022/12/24 01:09:57;;;;;;;18.75;12.10;;;;;;;4.38;58.45;93715.03;4991897;28;20591;-72
2022/12/24 01:12:23;;;;;;;14.02;11.18;;;;;;;4.20;58.64;93692.81;4992677;28;20026;-73
2022/12/24 01:14:48;;;;;;;14.25;10.68;;;;;;;4.17;58.54;93705.69;4990788;28;20136;-72
2022/12/24 01:17:14;;;;;;;15.32;11.30;;;;;;;4.40;57.74;93717.41;4991725;28;20029;-74
2022/12/24 01:19:39;;;;;;;18.20;12.45;;;;;;;4.21;57.81;93718.03;5007458;28;20161;-72
2022/12/24 01:22:04;;;;;;;19.15;12.90;;;;;;;4.16;58.43;93712.81;4989039;28;20806;-73
2022/12/24 01:24:30;;;;;;;17.25;11.77;;;;;;;3.98;59.01;93687.16;4993475;28;20064;-72
2022/12/24 01:26:55;;;;;;;18.35;11.95;;;;;;;4.07;58.57;93711.81;4993015;28;20149;-72
2022/12/24 01:29:21;;;;;;;18.65;11.48;;;;;;;4.10;59.00;93699.97;4994626;28;20048;-73
2022/12/24 01:31:46;;;;;;;17.38;12.65;;;;;;;4.08;58.92;93702.88;4994783;28;21237;-72
2022/12/24 01:34:11;;;;;;;18.83;12.73;;;;;;;4.04;59.22;93691.34;4995153;28;20048;-72
2022/12/24 01:36:37;;;;;;;18.83;12.35;;;;;;;3.89;59.46;93688.81;4995031;28;20062;-73
2022/12/24 01:39:03;;;;;;;17.50;12.18;;;;;;;4.07;59.20;93708.41;4996172;28;20021;-74
2022/12/24 01:44:32;;;;;;;17.85;11.10;;;;;;;4.14;58.18;93714.16;4994583;28;20093;-73
2022/12/24 01:47:05;;;;;;;16.73;11.65;;;;;;;4.11;58.86;93718.13;4996296;28;20133;-73
2022/12/24 01:49:31;;;;;;;18.60;12.25;;;;;;;3.96;58.31;93705.09;4991138;28;20042;-73
2022/12/24 01:52:07;;;;;;;20.33;12.00;;;;;;;3.78;58.79;93687.31;4996613;28;20056;-72
2022/12/24 01:54:35;;;;;;;20.15;12.18;;;;;;;3.94;59.15;93717.72;4994167;28;20119;-73
2022/12/24 01:57:08;;;;;;;17.48;10.50;;;;;;;3.95;58.76;93708.78;4994298;28;20504;-74
2022/12/24 01:59:36;;;;;;;15.52;10.43;;;;;;;3.80;59.06;93700.97;4994740;28;20046;-72
2022/12/24 02:02:02;;;;;;;15.32;10.85;;;;;;;3.91;58.40;93712.22;4996206;28;20096;-73
2022/12/24 02:04:47;;;;;;;17.48;11.50;;;;;;;3.89;58.84;93696.72;4995138;28;20084;-73
2022/12/24 02:07:12;;;;;;;16.03;10.97;;;;;;;3.80;58.70;93685.19;4996945;28;20148;-73
2022/12/24 02:09:38;;;;;;;16.02;10.80;;;;;;;3.83;58.65;93663.59;4993003;28;20275;-73
2022/12/24 02:12:05;;;;;;;14.77;10.73;;;;;;;3.82;58.22;93680.44;4996735;28;20045;-72
2022/12/24 02:14:31;;;;;;;14.18;10.93;;;;;;;3.87;58.71;93690.16;4993236;28;20084;-72
2022/12/24 02:17:07;;;;;;;15.43;10.48;;;;;;;3.90;58.50;93693.03;4994731;28;20441;-72
2022/12/24 02:20:09;;;;;;;16.63;10.77;;;;;;;3.89;58.77;93703.81;4993251;28;20080;-73
2022/12/24 02:22:50;;;;;;;16.40;11.40;;;;;;;3.86;58.79;93704.38;4992338;28;20038;-72
2022/12/24 02:25:39;;;;;;;15.30;11.40;;;;;;;3.77;58.97;93691.03;4994583;28;20046;-73
2022/12/24 02:28:30;;;;;;;14.73;10.80;;;;;;;3.76;58.73;93705.22;5005774;28;20595;-72
2022/12/24 02:31:06;;;;;;;13.73;9.98;;;;;;;3.52;59.28;93685.91;4995732;28;20036;-72
2022/12/24 02:33:41;;;;;;;14.07;9.80;;;;;;;3.58;59.02;93705.84;4985278;28;20141;-72
2022/12/24 02:36:18;;;;;;;13.98;9.25;;;;;;;3.67;59.14;93706.84;4990990;28;20141;-72
2022/12/24 02:39:10;;;;;;;13.95;10.35;;;;;;;3.59;59.42;93702.94;5005547;28;21183;-73
2022/12/24 02:44:29;;;;;;;11.93;7.57;;;;;;;3.46;59.86;93700.13;4993074;28;20052;-73
2022/12/24 02:46:55;;;;;;;11.15;8.65;;;;;;;3.59;59.42;93695.06;4992087;28;22621;-72
2022/12/24 02:49:21;;;;;;;11.70;8.73;;;;;;;3.44;59.44;93662.78;4995093;28;20526;-73
2022/12/24 02:51:46;;;;;;;12.85;9.73;;;;;;;3.64;59.11;93686.34;4993174;28;20543;-72
2022/12/24 02:54:13;;;;;;;12.77;9.43;;;;;;;3.60;59.25;93680.84;4994606;28;20031;-72
2022/12/24 02:56:51;;;;;;;10.65;8.45;;;;;;;3.62;59.48;93681.38;4995496;28;20038;-72
2022/12/24 02:59:58;;;;;;;12.50;8.38;;;;;;;3.58;59.33;93671.66;4993122;28;20577;-72
2022/12/24 03:02:36;;;;;;;14.13;10.30;;;;;;;3.60;59.25;93674.81;4980557;28;20046;-73
2022/12/24 03:05:09;;;;;;;13.98;9.10;;;;;;;3.68;59.47;93679.47;4992666;28;20037;-71
2022/12/24 03:07:47;;;;;;;15.15;9.13;;;;;;;3.74;59.48;93686.28;4986541;28;20042;-75
2022/12/24 03:10:18;;;;;;;11.68;9.63;;;;;;;3.68;59.21;93682.09;4993115;28;20030;-75
2022/12/24 03:12:49;;;;;;;15.65;10.60;;;;;;;3.62;59.20;93672.69;4992869;28;20046;-73
2022/12/24 03:15:17;;;;;;;20.10;11.32;;;;;;;3.29;59.36;93632.91;4994211;28;20064;-72
2022/12/24 03:17:46;;;;;;;15.93;10.73;;;;;;;3.64;59.42;93681.09;4993822;28;20045;-72
2022/12/24 03:20:17;;;;;;;17.42;11.82;;;;;;;3.64;60.22;93678.47;4993429;28;20038;-72
2022/12/24 03:22:43;;;;;;;15.02;9.95;;;;;;;3.63;60.14;93684.75;4990430;28;20042;-73
2022/12/24 03:25:08;;;;;;;12.77;9.77;;;;;;;3.59;60.08;93683.75;4991666;28;20500;-72
2022/12/24 03:27:36;;;;;;;13.73;10.05;;;;;;;3.48;59.86;93667.22;4991585;28;20026;-73
2022/12/24 03:30:03;;;;;;;14.45;9.10;;;;;;;3.47;60.17;93667.53;4988152;28;20595;-72
2022/12/24 03:32:31;;;;;;;14.15;9.05;;;;;;;3.56;60.02;93676.41;4993505;28;20116;-73
2022/12/24 03:34:56;;;;;;;13.77;9.38;;;;;;;3.57;59.75;93670.09;4991350;28;20038;-72
2022/12/24 03:37:22;;;;;;;17.13;9.32;;;;;;;3.59;59.61;93679.28;4994198;28;20040;-73
2022/12/24 03:39:48;;;;;;;11.27;8.77;;;;;;;3.53;59.75;93663.78;4992454;28;20032;-72
2022/12/24 03:42:13;;;;;;;12.35;8.95;;;;;;;3.59;59.69;93679.28;4995252;28;20026;-73
2022/12/24 03:44:39;;;;;;;13.15;9.75;;;;;;;3.56;59.23;93673.78;4988812;28;20045;-73
2022/12/24 03:47:04;;;;;;;25.63;10.57;;;;;;;3.52;58.64;93656.97;4992264;28;20037;-74
2022/12/24 03:49:29;;;;;;;12.73;9.75;;;;;;;3.62;58.55;93683.22;4992871;28;20034;-74
2022/12/24 03:51:55;;;;;;;15.00;10.80;;;;;;;3.53;59.06;93674.31;4991148;28;20480;-73
2022/12/24 03:54:20;;;;;;;13.98;10.20;;;;;;;3.49;59.14;93668.03;4992418;28;20444;-76
2022/12/24 03:56:45;;;;;;;18.30;10.85;;;;;;;3.57;59.01;93691.13;4991957;28;20486;-73
2022/12/24 03:59:11;;;;;;;15.43;10.52;;;;;;;3.33;59.27;93670.72;4994970;28;20038;-73
2022/12/24 04:01:36;;;;;;;16.50;11.20;;;;;;;3.25;59.84;93689.72;4992062;28;20037;-75
2022/12/24 04:04:02;;;;;;;14.40;9.73;;;;;;;3.32;59.67;93695.47;4993198;28;20025;-74
2022/12/24 04:06:27;;;;;;;18.02;10.43;;;;;;;3.38;59.96;93697.00;4990723;28;20035;-73
2022/12/24 04:08:52;;;;;;;14.80;10.10;;;;;;;3.37;59.64;93695.44;4993006;28;20041;-74
2022/12/24 04:11:18;;;;;;;12.50;8.80;;;;;;;3.35;59.83;93713.31;4991790;28;20053;-73
2022/12/24 04:13:43;;;;;;;12.10;9.43;;;;;;;3.30;59.79;93718.59;4995370;28;20068;-73
2022/12/24 04:16:13;;;;;;;12.30;9.45;;;;;;;3.32;59.88;93721.75;4990312;28;20685;-74
2022/12/24 04:18:39;;;;;;;12.05;8.77;;;;;;;3.32;59.73;93711.25;4993093;28;20026;-73
2022/12/24 04:21:05;;;;;;;16.75;10.45;;;;;;;3.17;60.09;93708.69;4993001;28;20037;-73
2022/12/24 04:23:33;;;;;;;14.30;10.07;;;;;;;3.23;59.66;93715.47;4993201;28;20045;-73
2022/12/24 04:26:00;;;;;;;14.98;9.45;;;;;;;3.27;59.90;93702.59;4992197;28;20856;-73
2022/12/24 04:28:27;;;;;;;11.80;7.80;;;;;;;3.32;59.96;93713.09;4993516;28;20069;-73
2022/12/24 04:31:06;;;;;;;13.77;8.15;;;;;;;3.30;60.22;93702.84;5007861;28;20030;-75
2022/12/24 04:33:32;;;;;;;14.20;7.57;;;;;;;3.37;60.00;93718.31;4991586;28;20029;-73
2022/12/24 04:35:59;;;;;;;10.82;8.77;;;;;;;3.34;60.27;93724.88;4992243;28;20067;-73
2022/12/24 04:38:24;;;;;;;14.38;10.10;;;;;;;3.34;60.26;93729.34;4993634;28;20030;-75
2022/12/24 04:41:07;;;;;;;15.45;10.10;;;;;;;3.35;59.78;93736.97;4992356;28;20041;-74
2022/12/24 04:43:32;;;;;;;17.17;10.20;;;;;;;3.31;59.67;93732.53;4993655;28;20037;-75
2022/12/24 04:46:09;;;;;;;18.50;11.18;;;;;;;3.48;58.44;93750.63;4994234;28;20037;-73
2022/12/24 04:48:36;;;;;;;17.58;11.60;;;;;;;3.24;59.34;93735.44;4990925;28;20026;-74
2022/12/24 04:51:03;;;;;;;16.85;12.18;;;;;;;3.17;59.75;93737.59;4993530;28;20401;-74
2022/12/24 04:53:30;;;;;;;16.55;10.27;;;;;;;3.04;60.12;93725.00;4990970;28;20068;-74
2022/12/24 04:55:55;;;;;;;14.80;9.77;;;;;;;3.05;60.24;93725.78;4992636;28;20148;-74
2022/12/24 04:58:20;;;;;;;11.77;8.18;;;;;;;2.97;60.25;93709.53;4993320;28;20409;-73
2022/12/24 05:00:46;;;;;;;14.27;9.35;;;;;;;3.13;60.45;93723.41;4994855;28;20030;-74
2022/12/24 05:03:11;;;;;;;10.70;7.30;;;;;;;3.26;59.57;93709.69;4997727;28;22180;-74
2022/12/24 05:05:37;;;;;;;15.88;10.65;;;;;;;2.99;60.77;93700.59;4999775;28;20042;-77
2022/12/24 05:08:02;;;;;;;19.42;11.82;;;;;;;3.03;61.14;93712.94;5005754;28;20455;-75
2022/12/24 05:10:28;;;;;;;20.77;12.25;;;;;;;3.03;60.60;93715.56;5004533;28;20668;-76
2022/12/24 05:12:53;;;;;;;20.85;13.65;;;;;;;3.07;60.82;93708.72;5001923;28;20021;-76
2022/12/24 05:15:18;;;;;;;22.85;15.40;;;;;;;3.16;60.70;93698.44;5004005;28;20057;-77
2022/12/24 05:17:44;;;;;;;19.45;14.80;;;;;;;3.15;60.58;93696.84;5000719;28;20065;-75
2022/12/24 05:20:09;;;;;;;20.65;15.13;;;;;;;3.15;60.46;93687.13;5004645;28;20065;-75
2022/12/24 05:28:03;;;;;;;35.17;25.95;;;;;;;3.35;60.24;93704.66;5006704;28;20032;-75
2022/12/24 05:30:29;;;;;;;36.40;25.88;;;;;;;3.26;60.47;93707.06;5005653;28;20026;-78
2022/12/24 05:32:54;;;;;;;29.23;19.23;;;;;;;3.28;60.74;93718.06;5005416;28;20042;-75
2022/12/24 05:35:19;;;;;;;24.58;16.63;;;;;;;3.25;60.41;93718.63;5003473;28;20077;-75
2022/12/24 05:37:45;;;;;;;27.98;19.17;;;;;;;3.32;60.10;93715.72;5004938;28;20472;-75
2022/12/24 05:40:10;;;;;;;29.00;19.83;;;;;;;3.23;60.63;93698.94;5004902;28;20033;-75
2022/12/24 05:42:36;;;;;;;25.95;15.95;;;;;;;3.14;60.90;93684.75;5003569;28;20762;-75
2022/12/24 05:45:01;;;;;;;25.00;16.85;;;;;;;3.17;60.42;93689.50;5003204;28;20038;-76
2022/12/24 05:47:26;;;;;;;24.70;15.90;;;;;;;3.09;61.20;93690.81;5003163;28;20062;-76
2022/12/24 05:49:52;;;;;;;20.50;13.75;;;;;;;3.19;61.16;93706.53;5004536;28;20053;-76
2022/12/24 05:52:17;;;;;;;26.40;16.65;;;;;;;3.18;61.09;93696.31;5002052;28;20041;-74
2022/12/24 05:54:42;;;;;;;22.00;14.38;;;;;;;3.12;61.45;93692.94;5005225;28;20037;-76
2022/12/24 05:57:08;;;;;;;14.52;10.43;;;;;;;3.07;61.43;93666.69;5003175;28;20567;-74
2022/12/24 05:59:33;;;;;;;17.33;12.60;;;;;;;3.18;61.19;93677.94;5005657;28;20034;-76
2022/12/24 06:01:59;;;;;;;14.70;11.10;;;;;;;3.44;60.54;93702.22;5000751;28;20042;-77
2022/12/24 06:04:24;;;;;;;15.48;12.35;;;;;;;3.32;61.25;93699.94;5005565;28;20045;-76
2022/12/24 06:06:50;;;;;;;19.30;13.50;;;;;;;3.30;61.20;93700.19;5004334;28;20121;-74
2022/12/24 06:09:16;;;;;;;16.58;11.88;;;;;;;3.26;60.96;93691.28;5018475;28;20037;-76
2022/12/24 06:11:41;;;;;;;18.83;12.77;;;;;;;3.40;60.84;93713.31;5005186;28;20054;-75
2022/12/24 06:14:07;;;;;;;20.88;13.23;;;;;;;3.34;61.38;93709.13;5017611;28;20034;-76
2022/12/24 06:16:32;;;;;;;15.98;12.88;;;;;;;3.29;61.66;93722.28;5005208;28;20615;-75
2022/12/24 06:18:58;;;;;;;20.63;14.40;;;;;;;3.25;61.47;93700.22;5002219;28;20036;-74
2022/12/24 06:21:23;;;;;;;20.83;13.85;;;;;;;3.31;61.50;93725.44;5004511;28;20657;-77
2022/12/24 06:23:49;;;;;;;17.88;11.77;;;;;;;3.24;61.11;93688.13;5000798;28;20117;-75
2022/12/24 06:26:18;;;;;;;18.90;12.27;;;;;;;3.37;60.98;93713.84;5005623;28;20030;-75
2022/12/24 06:28:44;;;;;;;19.35;14.70;;;;;;;3.44;61.21;93728.53;5003834;28;20516;-75
2022/12/24 06:31:13;;;;;;;20.13;14.20;;;;;;;3.51;61.00;93734.28;5006068;28;20089;-76
2022/12/24 06:33:38;;;;;;;22.98;14.35;;;;;;;3.31;61.62;93725.44;5002609;28;20022;-75
2022/12/24 06:36:08;;;;;;;22.88;16.40;;;;;;;3.13;61.67;93705.03;5003982;28;20483;-76
2022/12/24 06:38:34;;;;;;;27.85;18.15;;;;;;;3.26;61.81;93720.19;5005179;28;20157;-75
2022/12/24 06:40:59;;;;;;;35.58;24.45;;;;;;;3.34;62.32;93735.41;5002371;28;21068;-76
2022/12/24 06:43:24;;;;;;;33.83;23.63;;;;;;;3.45;62.29;93740.63;5004533;28;20080;-76
2022/12/24 06:45:50;;;;;;;28.75;18.85;;;;;;;3.49;61.95;93737.19;5001624;28;20092;-76
2022/12/24 06:48:16;;;;;;;24.25;16.60;;;;;;;3.48;62.05;93740.84;5003720;28;20032;-75
2022/12/24 06:50:42;;;;;;;23.42;15.80;;;;;;;3.63;61.63;93747.88;5001834;28;20042;-76
2022/12/24 06:53:07;;;;;;;23.55;16.10;;;;;;;3.56;61.70;93747.41;5003499;28;20040;-75
2022/12/24 06:55:33;;;;;;;26.40;17.52;;;;;;;3.52;61.89;93736.66;5002098;28;20041;-78
2022/12/24 06:57:58;;;;;;;30.30;19.20;;;;;;;3.60;62.33;93745.81;5003571;28;20056;-77
2022/12/24 07:00:24;;;;;;;31.48;19.80;;;;;;;3.65;62.64;93740.53;5002271;28;20696;-76
2022/12/24 07:02:49;;;;;;;37.22;25.05;;;;;;;3.48;63.58;93709.31;5000527;28;20038;-75
2022/12/24 07:05:15;;;;;;;33.47;21.40;;;;;;;3.55;65.53;93740.56;5001746;28;20034;-75
2022/12/24 07:07:43;;;;;;;34.63;25.25;;;;;;;3.78;64.59;93739.91;5000987;28;20093;-76
2022/12/24 07:10:18;;;;;;;41.42;30.60;;;;;;;3.89;64.28;93738.81;5003241;28;20042;-76
2022/12/24 07:12:45;;;;;;;42.50;29.00;;;;;;;4.01;63.94;93743.75;5001073;28;20034;-77
2022/12/24 07:15:11;;;;;;;61.63;36.97;;;;;;;3.53;66.83;93758.44;5000826;28;20061;-76
2022/12/24 07:17:37;;;;;;;55.00;35.50;;;;;;;3.69;66.45;93742.34;5001706;28;20692;-75
2022/12/24 07:20:04;;;;;;;42.65;26.67;;;;;;;3.60;67.08;93748.44;5001236;28;20042;-75
2022/12/24 07:22:29;;;;;;;39.63;27.42;;;;;;;3.58;66.78;93745.28;5000405;28;20084;-77
2022/12/24 07:24:55;;;;;;;44.75;27.50;;;;;;;2.98;69.70;93747.09;5001173;28;20501;-75
2022/12/24 07:27:20;;;;;;;43.88;28.33;;;;;;;3.26;68.83;93735.19;4999100;28;20473;-76
2022/12/24 07:29:46;;;;;;;41.40;28.08;;;;;;;3.52;67.54;93756.91;5001515;28;20034;-75
2022/12/24 07:32:11;;;;;;;43.88;27.50;;;;;;;3.38;68.29;93749.56;4999107;28;20509;-74
2022/12/24 07:34:38;;;;;;;40.65;29.73;;;;;;;3.59;67.69;93747.66;4995963;28;20034;-74
2022/12/24 07:37:04;;;;;;;42.78;28.77;;;;;;;3.81;66.68;93744.66;4996940;28;20018;-74
2022/12/24 07:39:29;;;;;;;45.97;27.02;;;;;;;3.98;66.04;93754.78;4996169;28;20037;-74
2022/12/24 07:41:55;;;;;;;39.25;27.40;;;;;;;3.65;67.21;93756.31;4998700;28;20076;-75
2022/12/24 07:44:20;;;;;;;46.95;32.80;;;;;;;3.84;67.23;93744.09;4996877;28;20034;-73
2022/12/24 07:46:45;;;;;;;45.30;30.70;;;;;;;3.80;67.28;93758.84;4998229;28;20034;-74
2022/12/24 07:49:11;;;;;;;40.15;26.67;;;;;;;3.96;65.97;93754.28;4998301;28;20361;-73
2022/12/24 07:51:36;;;;;;;49.97;29.98;;;;;;;4.18;65.87;93758.09;4996408;28;20029;-73
2022/12/24 07:54:03;;;;;;;40.30;27.20;;;;;;;4.03;65.87;93760.81;4993739;28;20046;-74
2022/12/24 07:56:29;;;;;;;42.13;26.08;;;;;;;3.53;66.99;93750.56;4995367;28;20033;-74
2022/12/24 07:58:55;;;;;;;40.53;29.23;;;;;;;3.20;70.19;93760.69;4991676;28;20581;-74
2022/12/24 08:01:20;;;;;;;42.80;31.92;;;;;;;3.82;68.58;93777.78;4997255;28;20328;-73
2022/12/24 08:03:45;;;;;;;42.85;31.90;;;;;;;4.15;66.89;93777.06;4994929;28;20439;-73
2022/12/24 08:06:11;;;;;;;49.08;32.65;;;;;;;4.23;66.70;93778.31;4996119;28;20088;-74
2022/12/24 08:08:37;;;;;;;46.80;31.15;;;;;;;4.27;65.71;93780.13;4995695;28;20049;-74
2022/12/24 08:11:05;;;;;;;54.40;38.05;;;;;;;4.27;66.01;93782.75;4995312;28;20042;-75
2022/12/24 08:13:31;;;;;;;45.90;32.25;;;;;;;4.41;65.92;93790.84;4997198;28;20033;-75
2022/12/24 08:15:57;;;;;;;41.90;29.33;;;;;;;4.55;64.95;93791.03;4994115;28;20838;-74
2022/12/24 08:18:22;;;;;;;42.58;30.35;;;;;;;4.59;64.83;93792.84;4995629;28;20036;-75
2022/12/24 08:20:48;;;;;;;40.90;31.25;;;;;;;4.48;65.18;93769.47;4993405;28;20041;-75
2022/12/24 08:23:13;;;;;;;46.95;31.35;;;;;;;4.48;65.19;93785.28;4994700;28;20041;-74
2022/12/24 08:25:43;;;;;;;43.25;31.50;;;;;;;4.50;65.63;93777.91;4995136;28;20400;-73
2022/12/24 08:28:08;;;;;;;51.28;35.03;;;;;;;4.05;66.46;93761.34;4994409;28;20040;-74
2022/12/24 08:30:34;;;;;;;52.38;35.05;;;;;;;3.87;68.46;93788.25;4999585;28;20599;-76
2022/12/24 08:32:59;;;;;;;54.33;35.58;;;;;;;3.64;70.31;93788.91;4998287;28;20484;-73
2022/12/24 08:35:25;;;;;;;87.55;54.72;;;;;;;3.85;69.65;93774.63;4999726;28;20037;-75
2022/12/24 08:37:50;;;;;;;51.10;35.38;;;;;;;3.94;69.25;93765.09;5002035;28;20045;-74
2022/12/24 08:40:16;;;;;;;52.53;34.90;;;;;;;3.93;69.54;93758.25;5001800;28;20132;-74
2022/12/24 08:42:41;;;;;;;48.10;33.40;;;;;;;3.95;68.85;93745.63;5001092;28;20045;-74
2022/12/24 08:45:08;;;;;;;63.83;42.50;;;;;;;3.55;71.84;93766.88;5004806;28;20064;-76
2022/12/24 08:47:33;;;;;;;54.95;36.42;;;;;;;3.46;72.47;93765.84;5001748;28;20111;-74
2022/12/24 08:49:59;;;;;;;50.80;36.50;;;;;;;3.70;72.15;93780.75;5012244;28;20600;-74
2022/12/24 08:52:24;;;;;;;52.40;37.28;;;;;;;3.74;71.70;93754.69;5001891;28;20030;-74
2022/12/24 08:54:49;;;;;;;46.35;32.97;;;;;;;4.05;70.50;93771.88;4999941;28;20040;-74
2022/12/24 08:57:15;;;;;;;47.22;32.33;;;;;;;4.15;69.58;93792.84;4997161;28;20448;-75
2022/12/24 08:59:40;;;;;;;51.22;32.53;;;;;;;4.11;70.10;93799.69;5000657;28;20037;-74
2022/12/24 09:02:05;;;;;;;49.85;32.53;;;;;;;4.43;68.63;93803.75;4998092;28;20519;-73
2022/12/24 09:04:31;;;;;;;53.85;33.83;;;;;;;4.63;67.01;93793.84;4999851;28;20033;-74
2022/12/24 09:06:56;;;;;;;49.22;32.65;;;;;;;4.71;65.58;93784.56;4998252;28;20051;-74
2022/12/24 09:09:22;;;;;;;52.47;33.17;;;;;;;4.92;65.45;93790.44;4998194;28;20352;-73
2022/12/24 09:11:47;;;;;;;50.90;32.60;;;;;;;4.99;65.36;93778.50;5000999;28;20073;-74
2022/12/24 09:14:12;;;;;;;51.03;34.28;;;;;;;5.27;63.93;93774.28;4995390;28;20476;-74
2022/12/24 09:16:38;;;;;;;51.90;35.70;;;;;;;5.12;63.92;93759.41;5001747;28;20036;-73
2022/12/24 09:19:03;;;;;;;53.10;35.38;;;;;;;5.33;64.06;93767.09;4997981;28;20018;-74
2022/12/24 09:21:29;;;;;;;49.45;37.20;;;;;;;5.40;63.80;93764.88;5000218;28;20032;-74
2022/12/24 09:23:54;;;;;;;47.10;32.67;;;;;;;5.51;63.82;93761.88;4998726;28;20048;-74
2022/12/24 09:26:25;;;;;;;44.25;33.42;;;;;;;5.50;64.18;93770.03;5000952;28;20038;-74
2022/12/24 09:28:51;;;;;;;48.20;33.70;;;;;;;5.59;63.39;93757.81;4998520;28;20049;-74
2022/12/24 09:31:17;;;;;;;46.53;31.58;;;;;;;5.46;63.94;93764.56;5001286;28;20034;-76
2022/12/24 09:33:45;;;;;;;49.03;32.97;;;;;;;4.89;66.61;93773.34;4996716;28;20034;-73
2022/12/24 09:36:10;;;;;;;50.38;35.65;;;;;;;4.74;68.62;93757.69;4996715;28;20112;-73
2022/12/24 09:38:37;;;;;;;51.08;35.05;;;;;;;4.89;67.82;93760.16;4996216;28;20048;-74
2022/12/24 09:41:13;;;;;;;52.90;36.83;;;;;;;4.99;66.98;93754.78;4994538;28;20120;-74
2022/12/24 09:43:44;;;;;;;47.97;34.40;;;;;;;5.03;66.49;93761.09;4996380;28;20038;-74
2022/12/24 09:46:45;;;;;;;45.83;32.05;;;;;;;5.46;64.08;93754.00;4998445;28;20582;-75
2022/12/24 09:49:19;;;;;;;42.90;32.15;;;;;;;5.72;63.43;93758.97;4988507;28;20048;-76
2022/12/24 09:51:59;;;;;;;55.07;35.67;;;;;;;5.53;63.35;93746.53;4997595;28;20140;-73
2022/12/24 09:54:38;;;;;;;58.20;36.38;;;;;;;4.82;66.26;93716.75;4977996;28;20046;-74
2022/12/24 09:57:13;;;;;;;59.28;37.65;;;;;;;4.98;66.57;93742.69;4995526;28;20339;-74
2022/12/24 09:59:44;;;;;;;55.47;38.15;;;;;;;4.96;66.66;93747.44;5002881;28;20125;-75
2022/12/24 10:02:15;;;;;;;52.33;38.05;;;;;;;5.27;65.40;93750.53;4997926;28;20038;-74
2022/12/24 10:04:42;;;;;;;52.35;36.25;;;;;;;5.18;65.55;93751.44;4999608;28;20088;-74
2022/12/24 10:07:17;;;;;;;57.15;39.05;;;;;;;5.09;66.60;93749.41;5012857;28;20054;-74
2022/12/24 10:09:54;;;;;;;51.73;36.07;;;;;;;4.83;67.81;93756.00;4998320;28;20026;-74
2022/12/24 10:12:19;;;;;;;58.70;39.25;;;;;;;4.55;69.43;93760.19;4998837;28;20080;-73
2022/12/24 10:15:14;;;;;;;64.68;39.97;;;;;;;4.44;69.83;93758.72;4996055;28;20603;-76
2022/12/24 10:18:05;;;;;;;59.25;39.35;;;;;;;4.50;69.88;93754.97;4998576;28;20500;-74
2022/12/24 10:20:57;;;;;;;58.33;38.58;;;;;;;4.82;69.02;93741.25;4998322;28;20095;-73
2022/12/24 10:23:36;;;;;;;56.38;36.75;;;;;;;4.85;67.99;93748.59;4999882;28;20038;-75
2022/12/24 10:26:26;;;;;;;54.70;37.33;;;;;;;4.90;67.07;93745.91;4997164;28;20038;-76
2022/12/24 10:28:56;;;;;;;48.90;35.00;;;;;;;4.92;67.53;93746.44;4997410;28;20065;-73
2022/12/24 10:31:28;;;;;;;50.17;33.00;;;;;;;5.19;66.94;93750.38;4996266;28;20504;-73
2022/12/24 10:34:02;;;;;;;54.38;33.75;;;;;;;5.66;64.82;93752.97;4998026;28;20026;-73
2022/12/24 10:36:29;;;;;;;45.72;31.23;;;;;;;5.43;64.59;93743.25;4997785;28;20025;-75
2022/12/24 10:38:55;;;;;;;46.67;31.80;;;;;;;5.55;64.38;93740.97;4998853;28;20080;-74
2022/12/24 10:41:23;;;;;;;50.80;32.17;;;;;;;5.45;65.55;93735.81;4997750;28;20030;-74
2022/12/24 10:43:49;;;;;;;47.38;32.20;;;;;;;5.39;66.13;93732.44;4998294;28;20045;-74
2022/12/24 10:46:22;;;;;;;87.93;54.55;;;;;;;5.43;64.56;93735.34;4999065;28;20034;-75
2022/12/24 10:48:53;;;;;;;95.32;62.17;;;;;;;5.91;62.49;93736.03;4996806;28;20089;-74
2022/12/24 10:51:29;;;;;;;85.85;58.10;;;;;;;5.91;62.27;93733.38;4999785;28;20026;-74
2022/12/24 10:54:05;;;;;;;95.05;62.15;;;;;;;5.96;61.61;93730.66;4991804;28;20520;-76
2022/12/24 10:56:31;;;;;;;104.13;66.90;;;;;;;5.73;61.71;93737.56;4997879;28;20116;-74
2022/12/24 10:58:56;;;;;;;103.32;68.30;;;;;;;6.02;61.68;93734.78;4995739;28;20691;-74
2022/12/24 11:01:43;;;;;;;102.78;66.82;;;;;;;6.33;59.09;93730.66;4999300;28;20049;-73
2022/12/24 11:04:15;;;;;;;107.47;69.70;;;;;;;6.39;58.00;93732.16;4991886;28;20034;-74
2022/12/24 11:07:03;;;;;;;101.20;69.75;;;;;;;6.48;58.29;93745.50;4991830;28;20030;-74
2022/12/24 11:09:35;;;;;;;114.07;71.22;;;;;;;6.53;58.19;93749.91;5000435;28;20754;-75
2022/12/24 11:12:04;;;;;;;108.60;72.28;;;;;;;6.41;58.37;93723.94;5003963;28;20113;-76
2022/12/24 11:14:36;;;;;;;116.35;72.35;;;;;;;6.54;58.17;93720.56;5012753;28;20045;-76
2022/12/24 11:17:01;;;;;;;102.03;71.32;;;;;;;6.60;57.34;93729.97;5002944;28;20034;-77
2022/12/24 11:19:38;;;;;;;110.00;72.32;;;;;;;6.48;57.25;93726.22;5000396;28;20033;-75
2022/12/24 11:22:07;;;;;;;108.93;73.05;;;;;;;6.64;57.40;93720.41;5014051;28;20824;-76
2022/12/24 11:24:36;;;;;;;115.93;74.68;;;;;;;6.56;57.78;93728.97;5000008;28;20469;-75
2022/12/24 11:27:31;;;;;;;109.45;75.55;;;;;;;6.71;57.41;93730.56;4997399;28;20038;-75
2022/12/24 11:30:15;;;;;;;117.00;76.57;;;;;;;6.38;58.54;93727.16;4999385;28;20041;-75
2022/12/24 11:33:09;;;;;;;112.25;70.15;;;;;;;6.59;58.23;93717.03;5002453;28;20041;-75
2022/12/24 11:35:42;;;;;;;109.13;71.85;;;;;;;6.76;57.74;93728.63;4999154;28;20057;-76
2022/12/24 11:38:11;;;;;;;105.80;68.47;;;;;;;6.72;58.39;93729.50;5015444;28;20030;-75
2022/12/24 11:40:40;;;;;;;111.35;72.80;;;;;;;6.83;58.14;93738.84;4999365;28;20034;-75
2022/12/24 11:43:12;;;;;;;104.88;70.53;;;;;;;7.00;56.80;93735.63;4999813;28;20084;-75
2022/12/24 11:45:38;;;;;;;101.97;69.78;;;;;;;6.57;58.53;93740.31;4999933;28;20093;-75
2022/12/24 11:48:24;;;;;;;104.90;70.65;;;;;;;6.80;58.15;93724.31;5001407;28;20126;-75